sensor_id;sensor_type;location;lat;lon;timestamp;pressure;altitude;pressure_sealevel;temperature;humidity
8637;BME280;4356;49.068;8.658;2023-03-18T00:00:03;99417.56;;;18.58;37.08
8637;BME280;4356;49.068;8.658;2023-03-18T00:02:34;99413.41;;;18.56;37.08
8637;BME280;4356;49.068;8.658;2023-03-18T00:05:02;99431.78;;;18.60;37.27
8637;BME280;4356;49.068;8.658;2023-03-18T00:07:28;99421.13;;;18.59;37.29
8637;BME280;4356;49.068;8.658;2023-03-18T00:09:54;99429.28;;;18.59;37.33
8637;BME280;4356;49.068;8.658;2023-03-18T00:12:19;99439.94;;;18.60;37.09
8637;BME280;4356;49.068;8.658;2023-03-18T00:14:46;99427.25;;;18.54;37.40
8637;BME280;4356;49.068;8.658;2023-03-18T00:17:11;99436.03;;;18.56;37.15
8637;BME280;4356;49.068;8.658;2023-03-18T00:19:38;99428.19;;;18.48;37.21
8637;BME280;4356;49.068;8.658;2023-03-18T00:22:03;99432.22;;;18.45;37.27
8637;BME280;4356;49.068;8.658;2023-03-18T00:24:29;99446.06;;;18.56;37.22
8637;BME280;4356;49.068;8.658;2023-03-18T00:26:55;99449.25;;;18.53;37.15
8637;BME280;4356;49.068;8.658;2023-03-18T00:29:22;99440.97;;;18.48;37.50
8637;BME280;4356;49.068;8.658;2023-03-18T00:31:49;99453.03;;;18.52;37.32
8637;BME280;4356;49.068;8.658;2023-03-18T00:34:16;99454.09;;;18.51;37.46
8637;BME280;4356;49.068;8.658;2023-03-18T00:36:42;99447.03;;;18.50;37.15
8637;BME280;4356;49.068;8.658;2023-03-18T00:39:10;99457.91;;;18.50;37.30
8637;BME280;4356;49.068;8.658;2023-03-18T00:41:37;99450.19;;;18.46;37.23
8637;BME280;4356;49.068;8.658;2023-03-18T00:44:04;99460.25;;;18.46;37.25
8637;BME280;4356;49.068;8.658;2023-03-18T00:46:32;99468.19;;;18.48;37.44
8637;BME280;4356;49.068;8.658;2023-03-18T00:49:02;99456.09;;;18.43;37.27
8637;BME280;4356;49.068;8.658;2023-03-18T00:51:30;99456.94;;;18.44;37.52
8637;BME280;4356;49.068;8.658;2023-03-18T00:53:59;99460.47;;;18.44;37.25
8637;BME280;4356;49.068;8.658;2023-03-18T00:56:27;99446.94;;;18.38;37.34
8637;BME280;4356;49.068;8.658;2023-03-18T00:58:53;99460.94;;;18.41;37.17
8637;BME280;4356;49.068;8.658;2023-03-18T01:01:20;99434.13;;;18.27;37.41
8637;BME280;4356;49.068;8.658;2023-03-18T01:03:46;99458.41;;;18.40;36.98
8637;BME280;4356;49.068;8.658;2023-03-18T01:06:16;99461.97;;;18.40;37.15
8637;BME280;4356;49.068;8.658;2023-03-18T01:08:42;99463.25;;;18.38;37.10
8637;BME280;4356;49.068;8.658;2023-03-18T01:11:09;99458.84;;;18.25;37.23
8637;BME280;4356;49.068;8.658;2023-03-18T01:13:36;99451.53;;;18.26;37.14
8637;BME280;4356;49.068;8.658;2023-03-18T01:16:02;99458.59;;;18.27;37.40
8637;BME280;4356;49.068;8.658;2023-03-18T01:18:28;99477.34;;;18.35;37.34
8637;BME280;4356;49.068;8.658;2023-03-18T01:20:55;99474.63;;;18.35;37.36
8637;BME280;4356;49.068;8.658;2023-03-18T01:23:22;99473.78;;;18.34;37.22
8637;BME280;4356;49.068;8.658;2023-03-18T01:25:48;99470.47;;;18.32;37.15
8637;BME280;4356;49.068;8.658;2023-03-18T01:28:14;99473.41;;;18.31;37.15
8637;BME280;4356;49.068;8.658;2023-03-18T01:30:41;99469.00;;;18.30;37.46
8637;BME280;4356;49.068;8.658;2023-03-18T01:33:07;99461.31;;;18.27;37.43
8637;BME280;4356;49.068;8.658;2023-03-18T01:35:35;99449.47;;;18.21;37.45
8637;BME280;4356;49.068;8.658;2023-03-18T01:38:02;99460.50;;;18.26;37.42
8637;BME280;4356;49.068;8.658;2023-03-18T01:40:31;99453.41;;;18.25;37.22
8637;BME280;4356;49.068;8.658;2023-03-18T01:43:21;99462.16;;;18.27;37.13
8637;BME280;4356;49.068;8.658;2023-03-18T01:45:50;99457.03;;;18.19;37.41
8637;BME280;4356;49.068;8.658;2023-03-18T01:48:19;99470.56;;;18.26;37.25
8637;BME280;4356;49.068;8.658;2023-03-18T01:50:50;99472.69;;;18.24;37.01
8637;BME280;4356;49.068;8.658;2023-03-18T01:53:19;99456.91;;;18.14;37.34
8637;BME280;4356;49.068;8.658;2023-03-18T01:55:47;99464.75;;;18.22;37.02
8637;BME280;4356;49.068;8.658;2023-03-18T01:58:19;99455.16;;;18.20;37.52
8637;BME280;4356;49.068;8.658;2023-03-18T02:00:57;99439.38;;;18.10;37.01
8637;BME280;4356;49.068;8.658;2023-03-18T02:03:24;99451.34;;;18.21;37.04
8637;BME280;4356;49.068;8.658;2023-03-18T02:05:52;99449.94;;;18.18;37.40
8637;BME280;4356;49.068;8.658;2023-03-18T02:08:18;99446.41;;;18.18;37.31
8637;BME280;4356;49.068;8.658;2023-03-18T02:10:44;99444.75;;;18.17;37.17
8637;BME280;4356;49.068;8.658;2023-03-18T02:13:12;99454.78;;;18.16;37.03
8637;BME280;4356;49.068;8.658;2023-03-18T02:15:49;99451.22;;;18.16;37.07
8637;BME280;4356;49.068;8.658;2023-03-18T02:18:28;99454.19;;;18.14;37.54
8637;BME280;4356;49.068;8.658;2023-03-18T02:21:52;99445.91;;;18.09;37.48
8637;BME280;4356;49.068;8.658;2023-03-18T02:29:33;99461.59;;;18.07;37.26
8637;BME280;4356;49.068;8.658;2023-03-18T02:32:04;99462.06;;;18.04;36.99
8637;BME280;4356;49.068;8.658;2023-03-18T02:34:32;99461.00;;;18.05;37.52
8637;BME280;4356;49.068;8.658;2023-03-18T02:36:58;99459.78;;;18.01;37.49
8637;BME280;4356;49.068;8.658;2023-03-18T02:39:24;99466.91;;;18.02;37.14
8637;BME280;4356;49.068;8.658;2023-03-18T02:41:50;99468.78;;;18.02;37.32
8637;BME280;4356;49.068;8.658;2023-03-18T02:44:17;99460.50;;;17.97;37.48
8637;BME280;4356;49.068;8.658;2023-03-18T02:49:17;99475.50;;;17.99;37.35
8637;BME280;4356;49.068;8.658;2023-03-18T02:51:44;99465.09;;;17.96;37.34
8637;BME280;4356;49.068;8.658;2023-03-18T02:54:25;99472.66;;;17.94;37.57
8637;BME280;4356;49.068;8.658;2023-03-18T02:56:52;99462.69;;;17.88;37.42
8637;BME280;4356;49.068;8.658;2023-03-18T02:59:18;99480.56;;;17.96;37.50
8637;BME280;4356;49.068;8.658;2023-03-18T03:01:46;99472.03;;;17.92;37.70
8637;BME280;4356;49.068;8.658;2023-03-18T03:04:12;99477.72;;;17.91;37.69
8637;BME280;4356;49.068;8.658;2023-03-18T03:06:39;99464.41;;;17.83;37.32
8637;BME280;4356;49.068;8.658;2023-03-18T03:09:06;99471.91;;;17.87;37.42
8637;BME280;4356;49.068;8.658;2023-03-18T03:11:32;99472.19;;;17.79;37.36
8637;BME280;4356;49.068;8.658;2023-03-18T03:13:58;99459.44;;;17.80;37.45
8637;BME280;4356;49.068;8.658;2023-03-18T03:16:24;99469.03;;;17.82;37.40
8637;BME280;4356;49.068;8.658;2023-03-18T03:18:50;99477.19;;;17.82;37.66
8637;BME280;4356;49.068;8.658;2023-03-18T03:21:16;99472.81;;;17.81;37.30
8637;BME280;4356;49.068;8.658;2023-03-18T03:23:44;99488.44;;;17.86;37.55
8637;BME280;4356;49.068;8.658;2023-03-18T03:26:10;99477.19;;;17.82;37.64
8637;BME280;4356;49.068;8.658;2023-03-18T03:28:36;99497.88;;;17.83;37.40
8637;BME280;4356;49.068;8.658;2023-03-18T03:31:03;99487.47;;;17.80;37.33
8637;BME280;4356;49.068;8.658;2023-03-18T03:33:28;99479.97;;;17.76;37.64
8637;BME280;4356;49.068;8.658;2023-03-18T03:35:54;99487.47;;;17.80;37.22
8637;BME280;4356;49.068;8.658;2023-03-18T03:38:22;99464.22;;;17.66;37.31
8637;BME280;4356;49.068;8.658;2023-03-18T03:40:48;99485.22;;;17.77;37.66
8637;BME280;4356;49.068;8.658;2023-03-18T03:43:14;99489.81;;;17.77;37.69
8637;BME280;4356;49.068;8.658;2023-03-18T03:45:41;99500.06;;;17.75;37.68
8637;BME280;4356;49.068;8.658;2023-03-18T03:48:07;99496.28;;;17.76;37.56
8637;BME280;4356;49.068;8.658;2023-03-18T03:50:34;99497.13;;;17.76;37.74
8637;BME280;4356;49.068;8.658;2023-03-18T03:53:00;99498.41;;;17.74;37.44
8637;BME280;4356;49.068;8.658;2023-03-18T03:55:27;99488.06;;;17.64;37.40
8637;BME280;4356;49.068;8.658;2023-03-18T03:57:53;99499.69;;;17.71;37.37
8637;BME280;4356;49.068;8.658;2023-03-18T04:00:20;99499.09;;;17.69;37.67
8637;BME280;4356;49.068;8.658;2023-03-18T04:02:48;99497.22;;;17.70;37.32
8637;BME280;4356;49.068;8.658;2023-03-18T04:05:15;99497.63;;;17.67;37.28
8637;BME280;4356;49.068;8.658;2023-03-18T04:07:41;99494.56;;;17.63;37.55
8637;BME280;4356;49.068;8.658;2023-03-18T04:10:09;99497.63;;;17.67;37.76
8637;BME280;4356;49.068;8.658;2023-03-18T04:12:36;99501.19;;;17.67;37.41
8637;BME280;4356;49.068;8.658;2023-03-18T04:15:03;99506.88;;;17.66;37.33
8637;BME280;4356;49.068;8.658;2023-03-18T04:17:28;99515.25;;;17.64;37.49
8637;BME280;4356;49.068;8.658;2023-03-18T04:19:54;99519.84;;;17.64;37.40
8637;BME280;4356;49.068;8.658;2023-03-18T04:22:20;99514.19;;;17.65;37.53
8637;BME280;4356;49.068;8.658;2023-03-18T04:24:45;99507.53;;;17.61;37.42
8637;BME280;4356;49.068;8.658;2023-03-18T04:27:11;99511.69;;;17.64;37.40
8637;BME280;4356;49.068;8.658;2023-03-18T04:29:37;99504.22;;;17.59;37.24
8637;BME280;4356;49.068;8.658;2023-03-18T04:32:03;99503.16;;;17.60;37.66
8637;BME280;4356;49.068;8.658;2023-03-18T04:34:29;99506.94;;;17.59;37.56
8637;BME280;4356;49.068;8.658;2023-03-18T04:36:54;99505.66;;;17.62;37.59
8637;BME280;4356;49.068;8.658;2023-03-18T04:39:21;99503.41;;;17.59;37.55
8637;BME280;4356;49.068;8.658;2023-03-18T04:41:47;99503.81;;;17.56;37.61
8637;BME280;4356;49.068;8.658;2023-03-18T04:44:13;99512.59;;;17.58;37.46
8637;BME280;4356;49.068;8.658;2023-03-18T04:46:38;99503.66;;;17.51;37.74
8637;BME280;4356;49.068;8.658;2023-03-18T04:49:04;99504.50;;;17.51;37.58
8637;BME280;4356;49.068;8.658;2023-03-18T04:51:30;99509.25;;;17.56;37.63
8637;BME280;4356;49.068;8.658;2023-03-18T04:53:55;99511.78;;;17.57;37.31
8637;BME280;4356;49.068;8.658;2023-03-18T04:56:21;99508.88;;;17.52;37.47
8637;BME280;4356;49.068;8.658;2023-03-18T04:58:47;99502.19;;;17.55;37.66
8637;BME280;4356;49.068;8.658;2023-03-18T05:01:12;99487.28;;;17.39;37.40
8637;BME280;4356;49.068;8.658;2023-03-18T05:03:39;99514.31;;;17.52;37.35
8637;BME280;4356;49.068;8.658;2023-03-18T05:06:06;99505.78;;;17.48;37.48
8637;BME280;4356;49.068;8.658;2023-03-18T05:08:32;99507.69;;;17.48;37.32
8637;BME280;4356;49.068;8.658;2023-03-18T05:10:58;99504.13;;;17.48;37.62
8637;BME280;4356;49.068;8.658;2023-03-18T05:13:24;99506.22;;;17.45;37.33
8637;BME280;4356;49.068;8.658;2023-03-18T05:15:50;99492.09;;;17.37;37.68
8637;BME280;4356;49.068;8.658;2023-03-18T05:18:16;99496.47;;;17.38;37.67
8637;BME280;4356;49.068;8.658;2023-03-18T05:20:41;99510.41;;;17.48;37.77
8637;BME280;4356;49.068;8.658;2023-03-18T05:23:07;99512.91;;;17.43;37.75
8637;BME280;4356;49.068;8.658;2023-03-18T05:25:33;99516.47;;;17.43;37.93
8637;BME280;4356;49.068;8.658;2023-03-18T05:27:59;99512.91;;;17.43;37.78
8637;BME280;4356;49.068;8.658;2023-03-18T05:30:25;99513.75;;;17.43;37.74
8637;BME280;4356;49.068;8.658;2023-03-18T05:32:51;99511.72;;;17.39;37.44
8637;BME280;4356;49.068;8.658;2023-03-18T05:35:18;99515.63;;;17.43;37.81
8637;BME280;4356;49.068;8.658;2023-03-18T05:37:44;99504.22;;;17.34;37.76
8637;BME280;4356;49.068;8.658;2023-03-18T05:40:11;99522.59;;;17.39;37.90
8637;BME280;4356;49.068;8.658;2023-03-18T05:42:38;99520.06;;;17.37;37.44
8637;BME280;4356;49.068;8.658;2023-03-18T05:45:05;99525.31;;;17.39;37.82
8637;BME280;4356;49.068;8.658;2023-03-18T05:47:31;99524.91;;;17.35;37.49
8637;BME280;4356;49.068;8.658;2023-03-18T05:49:57;99532.22;;;17.35;37.41
8637;BME280;4356;49.068;8.658;2023-03-18T05:52:23;99522.84;;;17.31;37.91
8637;BME280;4356;49.068;8.658;2023-03-18T05:54:49;99513.47;;;17.27;37.69
8637;BME280;4356;49.068;8.658;2023-03-18T05:57:15;99515.59;;;17.25;37.82
8637;BME280;4356;49.068;8.658;2023-03-18T05:59:41;99530.53;;;17.34;37.86
8637;BME280;4356;49.068;8.658;2023-03-18T06:02:08;99531.38;;;17.34;37.68
8637;BME280;4356;49.068;8.658;2023-03-18T06:04:34;99531.22;;;17.29;37.86
8637;BME280;4356;49.068;8.658;2023-03-18T06:07:00;99523.91;;;17.30;37.69
8637;BME280;4356;49.068;8.658;2023-03-18T06:09:27;99529.13;;;17.31;37.59
8637;BME280;4356;49.068;8.658;2023-03-18T06:11:53;99531.00;;;17.31;37.75
8637;BME280;4356;49.068;8.658;2023-03-18T06:14:21;99541.88;;;17.31;37.69
8637;BME280;4356;49.068;8.658;2023-03-18T06:16:47;99527.13;;;17.20;37.89
8637;BME280;4356;49.068;8.658;2023-03-18T06:19:12;99539.84;;;17.26;37.79
8637;BME280;4356;49.068;8.658;2023-03-18T06:21:39;99547.75;;;17.28;37.85
8637;BME280;4356;49.068;8.658;2023-03-18T06:24:05;99550.25;;;17.29;37.91
8637;BME280;4356;49.068;8.658;2023-03-18T06:26:31;99540.47;;;17.22;37.87
8637;BME280;4356;49.068;8.658;2023-03-18T06:28:57;99552.34;;;17.27;38.02
8637;BME280;4356;49.068;8.658;2023-03-18T06:31:23;99556.72;;;17.28;38.07
8637;BME280;4356;49.068;8.658;2023-03-18T06:33:50;99542.13;;;17.23;37.69
8637;BME280;4356;49.068;8.658;2023-03-18T06:36:16;99555.06;;;17.27;37.92
8637;BME280;4356;49.068;8.658;2023-03-18T06:38:43;99548.78;;;17.27;37.66
8637;BME280;4356;49.068;8.658;2023-03-18T06:41:09;99554.22;;;17.27;38.11
8637;BME280;4356;49.068;8.658;2023-03-18T06:43:36;99550.91;;;17.25;38.18
8637;BME280;4356;49.068;8.658;2023-03-18T06:46:02;99542.56;;;17.26;38.15
8637;BME280;4356;49.068;8.658;2023-03-18T06:48:28;99531.94;;;17.18;37.84
8637;BME280;4356;49.068;8.658;2023-03-18T06:50:54;99531.13;;;17.18;38.04
8637;BME280;4356;49.068;8.658;2023-03-18T06:53:20;99552.34;;;17.27;37.87
8637;BME280;4356;49.068;8.658;2023-03-18T06:55:46;99548.78;;;17.27;38.13
8637;BME280;4356;49.068;8.658;2023-03-18T06:58:12;99549.25;;;17.24;38.05
8637;BME280;4356;49.068;8.658;2023-03-18T07:00:38;99532.19;;;17.17;37.66
8637;BME280;4356;49.068;8.658;2023-03-18T07:03:06;99524.03;;;17.17;38.04
8637;BME280;4356;49.068;8.658;2023-03-18T07:05:32;99549.03;;;17.25;37.99
8637;BME280;4356;49.068;8.658;2023-03-18T07:07:57;99549.19;;;17.30;37.92
8637;BME280;4356;49.068;8.658;2023-03-18T07:10:26;99556.06;;;17.33;37.92
8637;BME280;4356;49.068;8.658;2023-03-18T07:12:53;99548.94;;;17.32;37.79
8637;BME280;4356;49.068;8.658;2023-03-18T07:15:20;99556.06;;;17.33;37.84
8637;BME280;4356;49.068;8.658;2023-03-18T07:17:47;99563.75;;;17.36;37.71
8637;BME280;4356;49.068;8.658;2023-03-18T07:20:14;99572.09;;;17.41;37.98
8637;BME280;4356;49.068;8.658;2023-03-18T07:22:41;99581.88;;;17.42;37.75
8637;BME280;4356;49.068;8.658;2023-03-18T07:25:07;99568.53;;;17.40;37.90
8637;BME280;4356;49.068;8.658;2023-03-18T07:27:33;99582.50;;;17.44;37.51
8637;BME280;4356;49.068;8.658;2023-03-18T07:29:59;99571.41;;;17.45;37.66
8637;BME280;4356;49.068;8.658;2023-03-18T07:32:26;99577.25;;;17.49;37.93
8637;BME280;4356;49.068;8.658;2023-03-18T07:34:52;99584.13;;;17.52;37.96
8637;BME280;4356;49.068;8.658;2023-03-18T07:37:18;99575.38;;;17.50;37.70
8637;BME280;4356;49.068;8.658;2023-03-18T07:39:43;99582.03;;;17.54;38.12
8637;BME280;4356;49.068;8.658;2023-03-18T07:42:10;99581.81;;;17.55;37.71
8637;BME280;4356;49.068;8.658;2023-03-18T07:44:36;99583.44;;;17.56;37.80
8637;BME280;4356;49.068;8.658;2023-03-18T07:47:02;99585.94;;;17.58;38.04
8637;BME280;4356;49.068;8.658;2023-03-18T07:49:29;99590.09;;;17.60;37.97
8637;BME280;4356;49.068;8.658;2023-03-18T07:51:55;99597.38;;;17.66;38.00
8637;BME280;4356;49.068;8.658;2023-03-18T07:54:21;99588.38;;;17.66;37.92
8637;BME280;4356;49.068;8.658;2023-03-18T07:56:49;99589.59;;;17.70;37.76
8637;BME280;4356;49.068;8.658;2023-03-18T07:59:14;99588.53;;;17.71;38.01
8637;BME280;4356;49.068;8.658;2023-03-18T08:01:40;99594.13;;;17.76;37.91
8637;BME280;4356;49.068;8.658;2023-03-18T08:04:07;99594.13;;;17.76;37.76
8637;BME280;4356;49.068;8.658;2023-03-18T08:06:32;99587.66;;;17.77;38.15
8637;BME280;4356;49.068;8.658;2023-03-18T08:08:59;99590.75;;;17.80;37.96
8637;BME280;4356;49.068;8.658;2023-03-18T08:11:25;99590.75;;;17.80;37.79
8637;BME280;4356;49.068;8.658;2023-03-18T08:13:51;99596.34;;;17.85;38.06
8637;BME280;4356;49.068;8.658;2023-03-18T08:16:16;99600.28;;;17.89;38.03
8637;BME280;4356;49.068;8.658;2023-03-18T08:18:43;99598.16;;;17.91;38.05
8637;BME280;4356;49.068;8.658;2023-03-18T08:21:09;99588.09;;;17.92;37.92
8637;BME280;4356;49.068;8.658;2023-03-18T08:23:35;99573.56;;;17.86;37.90
8637;BME280;4356;49.068;8.658;2023-03-18T08:26:01;99593.72;;;17.97;38.20
8637;BME280;4356;49.068;8.658;2023-03-18T08:28:27;99596.19;;;17.98;37.68
8637;BME280;4356;49.068;8.658;2023-03-18T08:30:54;99593.03;;;18.01;37.83
8637;BME280;4356;49.068;8.658;2023-03-18T08:33:21;99595.88;;;18.06;37.94
8637;BME280;4356;49.068;8.658;2023-03-18T08:35:47;99598.59;;;18.06;37.96
8637;BME280;4356;49.068;8.658;2023-03-18T08:38:14;99581.53;;;17.99;37.85
8637;BME280;4356;49.068;8.658;2023-03-18T08:40:40;99597.47;;;18.14;37.48
8637;BME280;4356;49.068;8.658;2023-03-18T08:43:07;99596.22;;;18.16;37.32
8637;BME280;4356;49.068;8.658;2023-03-18T08:45:35;99599.31;;;18.20;37.24
8637;BME280;4356;49.068;8.658;2023-03-18T08:48:00;99600.75;;;18.22;37.19
8637;BME280;4356;49.068;8.658;2023-03-18T08:50:26;99599.22;;;18.26;37.18
8637;BME280;4356;49.068;8.658;2023-03-18T08:52:56;99600.66;;;18.29;37.42
8637;BME280;4356;49.068;8.658;2023-03-18T08:55:28;99602.91;;;18.32;37.73
8637;BME280;4356;49.068;8.658;2023-03-18T08:57:54;99611.44;;;18.35;37.97
8637;BME280;4356;49.068;8.658;2023-03-18T09:00:20;99609.09;;;18.39;37.71
8637;BME280;4356;49.068;8.658;2023-03-18T09:02:46;99602.84;;;18.38;37.86
8637;BME280;4356;49.068;8.658;2023-03-18T09:05:12;99605.97;;;18.42;37.46
8637;BME280;4356;49.068;8.658;2023-03-18T09:07:37;99603.03;;;18.43;37.47
8637;BME280;4356;49.068;8.658;2023-03-18T09:10:04;99603.38;;;18.47;37.66
8637;BME280;4356;49.068;8.658;2023-03-18T09:12:30;99578.38;;;18.38;37.42
8637;BME280;4356;49.068;8.658;2023-03-18T09:14:56;99590.63;;;18.48;37.25
8637;BME280;4356;49.068;8.658;2023-03-18T09:17:22;99588.03;;;18.53;37.28
8637;BME280;4356;49.068;8.658;2023-03-18T09:19:49;99594.69;;;18.57;36.83
8637;BME280;4356;49.068;8.658;2023-03-18T09:22:15;99573.34;;;18.54;36.23
8637;BME280;4356;49.068;8.658;2023-03-18T09:24:41;99589.44;;;18.73;35.91
8637;BME280;4356;49.068;8.658;2023-03-18T09:27:06;99566.59;;;18.74;35.83
8637;BME280;4356;49.068;8.658;2023-03-18T09:29:32;99585.94;;;18.96;35.56
8637;BME280;4356;49.068;8.658;2023-03-18T09:31:57;99572.16;;;19.09;35.20
8637;BME280;4356;49.068;8.658;2023-03-18T09:34:25;99567.78;;;19.19;34.82
8637;BME280;4356;49.068;8.658;2023-03-18T09:36:50;99572.41;;;19.30;34.53
8637;BME280;4356;49.068;8.658;2023-03-18T09:39:18;99557.66;;;19.38;34.69
8637;BME280;4356;49.068;8.658;2023-03-18T09:42:47;99569.97;;;19.52;34.39
8637;BME280;4356;49.068;8.658;2023-03-18T09:45:01;99562.50;;;19.59;34.29
8637;BME280;4356;49.068;8.658;2023-03-18T09:53:10;99557.41;;;19.74;33.72
8637;BME280;4356;49.068;8.658;2023-03-18T09:55:50;99554.19;;;19.77;33.09
8637;BME280;4356;49.068;8.658;2023-03-18T09:58:44;99559.75;;;19.82;33.17
8637;BME280;4356;49.068;8.658;2023-03-18T10:01:12;99554.66;;;19.86;33.40
8637;BME280;4356;49.068;8.658;2023-03-18T10:04:22;99557.72;;;19.89;33.11
8637;BME280;4356;49.068;8.658;2023-03-18T10:06:53;99557.53;;;19.91;33.23
8637;BME280;4356;49.068;8.658;2023-03-18T10:09:33;99552.53;;;19.88;33.11
8637;BME280;4356;49.068;8.658;2023-03-18T10:12:30;99550.63;;;19.88;33.39
8637;BME280;4356;49.068;8.658;2023-03-18T10:17:45;99558.34;;;19.91;33.59
8637;BME280;4356;49.068;8.658;2023-03-18T10:20:23;99549.34;;;19.91;33.73
8637;BME280;4356;49.068;8.658;2023-03-18T10:23:08;99553.59;;;19.98;33.13
8637;BME280;4356;49.068;8.658;2023-03-18T10:25:50;99556.69;;;20.02;33.13
8637;BME280;4356;49.068;8.658;2023-03-18T10:34:08;99548.00;;;20.16;33.06
8637;BME280;4356;49.068;8.658;2023-03-18T10:37:05;99544.81;;;20.19;33.31
8637;BME280;4356;49.068;8.658;2023-03-18T10:39:36;99545.63;;;20.20;32.36
8637;BME280;4356;49.068;8.658;2023-03-18T10:42:32;99551.53;;;20.28;32.78
8637;BME280;4356;49.068;8.658;2023-03-18T10:45:15;99552.47;;;20.34;32.35
8637;BME280;4356;49.068;8.658;2023-03-18T10:47:48;99539.66;;;20.34;32.82
8637;BME280;4356;49.068;8.658;2023-03-18T10:50:30;99550.44;;;20.41;32.77
8637;BME280;4356;49.068;8.658;2023-03-18T10:56:03;99550.94;;;20.55;33.00
8637;BME280;4356;49.068;8.658;2023-03-18T10:58:29;99544.44;;;20.56;32.75
8637;BME280;4356;49.068;8.658;2023-03-18T11:00:58;99546.53;;;20.65;32.23
8637;BME280;4356;49.068;8.658;2023-03-18T11:03:32;99552.81;;;20.66;31.37
8637;BME280;4356;49.068;8.658;2023-03-18T11:06:03;99538.78;;;20.74;31.86
8637;BME280;4356;49.068;8.658;2023-03-18T11:08:34;99538.28;;;20.77;31.90
8637;BME280;4356;49.068;8.658;2023-03-18T11:13:49;99523.66;;;20.83;31.57
8637;BME280;4356;49.068;8.658;2023-03-18T11:16:39;99527.63;;;20.92;31.71
8637;BME280;4356;49.068;8.658;2023-03-18T11:19:39;99515.28;;;20.89;31.18
8637;BME280;4356;49.068;8.658;2023-03-18T11:22:20;99520.72;;;21.01;31.75
8637;BME280;4356;49.068;8.658;2023-03-18T11:27:44;99518.91;;;21.06;31.10
8637;BME280;4356;49.068;8.658;2023-03-18T11:30:28;99511.28;;;21.08;31.90
8637;BME280;4356;49.068;8.658;2023-03-18T11:33:13;99510.19;;;21.09;31.87
8637;BME280;4356;49.068;8.658;2023-03-18T11:35:44;99485.78;;;21.03;31.98
8637;BME280;4356;49.068;8.658;2023-03-18T11:38:24;99505.66;;;21.15;32.42
8637;BME280;4356;49.068;8.658;2023-03-18T11:41:12;99504.41;;;21.22;31.41
8637;BME280;4356;49.068;8.658;2023-03-18T11:43:53;99498.69;;;21.24;31.52
8637;BME280;4356;49.068;8.658;2023-03-18T11:46:22;99500.44;;;21.30;31.87
8637;BME280;4356;49.068;8.658;2023-03-18T11:48:49;99501.28;;;21.30;32.20
8637;BME280;4356;49.068;8.658;2023-03-18T11:56:57;99499.91;;;21.33;32.25
8637;BME280;4356;49.068;8.658;2023-03-18T12:02:58;99482.69;;;21.32;32.08
8637;BME280;4356;49.068;8.658;2023-03-18T12:05:59;99484.09;;;21.35;32.15
8637;BME280;4356;49.068;8.658;2023-03-18T12:14:18;99487.22;;;21.43;31.59
8637;BME280;4356;49.068;8.658;2023-03-18T12:17:02;99480.84;;;21.38;31.51
8637;BME280;4356;49.068;8.658;2023-03-18T12:22:25;99476.88;;;21.45;31.91
8637;BME280;4356;49.068;8.658;2023-03-18T12:27:34;99475.81;;;21.46;31.66
8637;BME280;4356;49.068;8.658;2023-03-18T12:30:32;99476.63;;;21.47;31.21
8637;BME280;4356;49.068;8.658;2023-03-18T12:38:39;99461.31;;;21.46;31.14
8637;BME280;4356;49.068;8.658;2023-03-18T12:47:05;99472.56;;;21.49;31.22
8637;BME280;4356;49.068;8.658;2023-03-18T12:49:36;99460.22;;;21.47;31.64
8637;BME280;4356;49.068;8.658;2023-03-18T12:58:03;99448.09;;;21.60;31.83
8637;BME280;4356;49.068;8.658;2023-03-18T13:05:50;99443.44;;;21.60;31.85
8637;BME280;4356;49.068;8.658;2023-03-18T13:17:02;99444.09;;;21.67;31.60
8637;BME280;4356;49.068;8.658;2023-03-18T13:19:29;99446.81;;;21.67;32.04
8637;BME280;4356;49.068;8.658;2023-03-18T13:22:27;99457.59;;;21.74;32.48
8637;BME280;4356;49.068;8.658;2023-03-18T13:28:25;99455.97;;;21.78;31.45
8637;BME280;4356;49.068;8.658;2023-03-18T13:31:09;99459.09;;;21.81;31.81
8637;BME280;4356;49.068;8.658;2023-03-18T13:33:51;99452.53;;;21.82;31.87
8637;BME280;4356;49.068;8.658;2023-03-18T13:36:45;99445.75;;;21.85;31.28
8637;BME280;4356;49.068;8.658;2023-03-18T13:39:24;99450.69;;;21.88;31.48
8637;BME280;4356;49.068;8.658;2023-03-18T13:42:18;99443.91;;;21.90;30.90
8637;BME280;4356;49.068;8.658;2023-03-18T13:48:09;99442.84;;;21.96;30.90
8637;BME280;4356;49.068;8.658;2023-03-18T13:50:38;99434.06;;;21.94;30.59
8637;BME280;4356;49.068;8.658;2023-03-18T13:53:37;99431.09;;;21.96;30.07
8637;BME280;4356;49.068;8.658;2023-03-18T13:56:06;99438.53;;;22.00;30.41
8637;BME280;4356;49.068;8.658;2023-03-18T13:58:50;99436.06;;;21.99;30.82
8637;BME280;4356;49.068;8.658;2023-03-18T14:03:56;99447.63;;;22.06;30.50
8637;BME280;4356;49.068;8.658;2023-03-18T14:06:53;99444.06;;;22.05;30.29
8637;BME280;4356;49.068;8.658;2023-03-18T14:12:02;99446.34;;;22.13;30.23
8637;BME280;4356;49.068;8.658;2023-03-18T14:14:59;99441.44;;;22.15;29.97
8637;BME280;4356;49.068;8.658;2023-03-18T14:22:51;99429.47;;;22.21;31.14
8637;BME280;4356;49.068;8.658;2023-03-18T14:25:40;99431.97;;;22.23;30.88
8637;BME280;4356;49.068;8.658;2023-03-18T14:35:58;99423.56;;;22.34;30.39
8637;BME280;4356;49.068;8.658;2023-03-18T14:38:36;99420.84;;;22.34;30.41
8637;BME280;4356;49.068;8.658;2023-03-18T14:41:14;99419.78;;;22.35;31.06
8637;BME280;4356;49.068;8.658;2023-03-18T14:43:50;99415.09;;;22.36;30.80
8637;BME280;4356;49.068;8.658;2023-03-18T14:46:22;99408.56;;;22.37;30.73
8637;BME280;4356;49.068;8.658;2023-03-18T14:48:54;99407.47;;;22.38;30.03
8637;BME280;4356;49.068;8.658;2023-03-18T14:51:22;99400.66;;;22.40;30.00
8637;BME280;4356;49.068;8.658;2023-03-18T14:53:57;99397.09;;;22.40;29.99
8637;BME280;4356;49.068;8.658;2023-03-18T14:56:33;99402.28;;;22.41;29.85
8637;BME280;4356;49.068;8.658;2023-03-18T14:59:00;99391.88;;;22.38;29.69
8637;BME280;4356;49.068;8.658;2023-03-18T15:01:34;99385.81;;;22.36;29.83
8637;BME280;4356;49.068;8.658;2023-03-18T15:04:01;99393.50;;;22.39;30.22
8637;BME280;4356;49.068;8.658;2023-03-18T15:06:28;99403.16;;;22.47;30.17
8637;BME280;4356;49.068;8.658;2023-03-18T15:09:29;99400.16;;;22.48;29.74
8637;BME280;4356;49.068;8.658;2023-03-18T15:11:57;99391.66;;;22.45;30.20
8637;BME280;4356;49.068;8.658;2023-03-18T15:14:30;99397.41;;;22.48;30.25
8637;BME280;4356;49.068;8.658;2023-03-18T15:17:02;99396.84;;;22.46;30.15
8637;BME280;4356;49.068;8.658;2023-03-18T15:19:29;99392.75;;;22.44;30.32
8637;BME280;4356;49.068;8.658;2023-03-18T15:22:01;99397.13;;;22.45;29.93
8637;BME280;4356;49.068;8.658;2023-03-18T15:24:31;99396.31;;;22.44;30.64